createdAt,value
2017-12-29T00:00:43.522Z,14.97
2017-12-29T00:03:10.962Z,14.00
2017-12-29T00:05:38.392Z,18.13
2017-12-29T00:08:05.824Z,12.47
2017-12-29T00:10:33.270Z,20.70
2017-12-29T00:13:00.701Z,13.97
2017-12-29T00:15:28.168Z,15.10
2017-12-29T00:17:55.716Z,16.07
2017-12-29T00:20:24.192Z,9.67
2017-12-29T00:22:51.652Z,13.93
2017-12-29T00:25:19.104Z,13.93
2017-12-29T00:27:46.568Z,24.53
2017-12-29T00:30:14.008Z,14.30
2017-12-29T00:32:41.448Z,19.93
2017-12-29T00:35:09.756Z,13.87
2017-12-29T00:37:37.196Z,13.97
2017-12-29T00:40:04.673Z,11.07
2017-12-29T00:42:32.104Z,15.20
2017-12-29T00:44:59.592Z,15.87
2017-12-29T00:47:27.044Z,12.43
2017-12-29T00:49:54.500Z,14.93
2017-12-29T00:52:21.928Z,16.90
2017-12-29T00:54:49.447Z,22.10
2017-12-29T00:57:16.875Z,12.90
2017-12-29T00:59:44.308Z,19.60
2017-12-29T01:02:11.744Z,17.77
2017-12-29T01:04:39.946Z,13.00
2017-12-29T01:07:07.416Z,18.73
2017-12-29T01:09:34.876Z,17.17
2017-12-29T01:12:02.304Z,17.50
2017-12-29T01:14:29.792Z,13.97
2017-12-29T01:16:57.236Z,16.33
2017-12-29T01:19:24.704Z,18.13
2017-12-29T01:21:52.132Z,13.37
2017-12-29T01:24:19.617Z,17.13
2017-12-29T01:26:47.056Z,11.13
2017-12-29T01:29:14.528Z,9.87
2017-12-29T01:31:41.972Z,17.30
2017-12-29T01:34:09.444Z,17.83
2017-12-29T01:36:36.894Z,18.33
2017-12-29T01:39:04.340Z,11.90
2017-12-29T01:41:31.828Z,15.43
2017-12-29T01:43:59.281Z,23.27
2017-12-29T01:46:26.724Z,20.07
2017-12-29T01:48:54.188Z,14.27
2017-12-29T01:51:21.624Z,19.90
2017-12-29T01:53:49.069Z,17.23
2017-12-29T01:56:17.265Z,15.83
2017-12-29T01:58:44.702Z,15.67
2017-12-29T02:01:12.904Z,18.93
2017-12-29T02:03:41.192Z,15.77
2017-12-29T02:06:08.607Z,17.90
2017-12-29T02:08:36.811Z,17.33
2017-12-29T02:11:04.273Z,18.90
2017-12-29T02:13:31.710Z,18.00
2017-12-29T02:15:59.172Z,17.13
2017-12-29T02:18:26.588Z,20.27
2017-12-29T02:20:54.106Z,16.13
2017-12-29T02:23:21.552Z,20.17
2017-12-29T02:25:48.980Z,20.97
2017-12-29T02:28:17.177Z,18.13
2017-12-29T02:30:44.616Z,22.20
2017-12-29T02:33:12.045Z,20.60
2017-12-29T02:35:40.001Z,18.57
2017-12-29T02:38:07.528Z,16.53
2017-12-29T02:40:34.992Z,19.40
2017-12-29T02:43:02.425Z,24.73
2017-12-29T02:45:29.867Z,20.63
2017-12-29T02:47:58.072Z,26.57
2017-12-29T02:50:25.536Z,27.87
2017-12-29T02:52:53.004Z,24.90
2017-12-29T02:55:20.492Z,26.20
2017-12-29T02:57:48.020Z,22.13
2017-12-29T03:00:15.472Z,24.70
2017-12-29T03:02:42.909Z,23.40
2017-12-29T03:05:10.336Z,23.57
2017-12-29T03:07:38.572Z,26.13
2017-12-29T03:10:06.024Z,25.17
2017-12-29T03:12:33.472Z,24.37
2017-12-29T03:15:00.932Z,17.60
2017-12-29T03:17:28.376Z,27.27
2017-12-29T03:19:55.796Z,22.97
2017-12-29T03:22:24.021Z,29.47
2017-12-29T03:24:51.462Z,27.43
2017-12-29T03:27:18.936Z,20.17
2017-12-29T03:29:46.496Z,23.87
2017-12-29T03:32:13.937Z,21.10
2017-12-29T03:34:41.348Z,26.63
2017-12-29T03:37:09.604Z,25.40
2017-12-29T03:39:37.060Z,32.30
2017-12-29T03:42:04.606Z,32.27
2017-12-29T03:44:32.050Z,24.53
2017-12-29T03:46:59.479Z,28.30
2017-12-29T03:49:26.964Z,32.70
2017-12-29T03:51:54.409Z,34.40
2017-12-29T03:54:21.840Z,25.83
2017-12-29T03:56:50.061Z,26.57
2017-12-29T03:59:17.517Z,22.30
2017-12-29T04:01:44.940Z,26.60
2017-12-29T04:04:12.368Z,27.03
2017-12-29T04:06:40.605Z,21.60
2017-12-29T04:09:08.046Z,24.60
2017-12-29T04:11:35.478Z,27.60
2017-12-29T04:14:03.696Z,25.10
2017-12-29T04:16:31.129Z,31.33
2017-12-29T04:18:58.601Z,31.10
2017-12-29T04:21:26.048Z,23.30
2017-12-29T04:23:53.472Z,35.27
2017-12-29T04:26:21.679Z,26.20
2017-12-29T04:28:49.147Z,30.87
2017-12-29T04:31:16.583Z,35.93
2017-12-29T04:33:44.009Z,28.33
2017-12-29T04:36:12.225Z,25.60
2017-12-29T04:38:39.704Z,28.77
2017-12-29T04:41:07.128Z,31.20
2017-12-29T04:43:34.583Z,27.53
2017-12-29T04:46:02.020Z,26.87
2017-12-29T04:48:30.219Z,24.77
2017-12-29T04:50:57.661Z,23.80
2017-12-29T04:53:25.156Z,29.77
2017-12-29T04:55:52.608Z,25.60
2017-12-29T04:58:20.057Z,24.33
2017-12-29T05:00:47.525Z,33.83
2017-12-29T05:03:14.980Z,24.97
2017-12-29T05:05:42.432Z,30.90
2017-12-29T05:08:09.868Z,23.37
2017-12-29T05:10:37.309Z,28.23
2017-12-29T05:13:05.520Z,33.53
2017-12-29T05:15:32.965Z,25.67
2017-12-29T05:18:00.388Z,27.90
2017-12-29T05:20:28.721Z,22.07
2017-12-29T05:22:56.156Z,23.13
2017-12-29T05:25:23.588Z,29.20
2017-12-29T05:27:51.810Z,31.57
2017-12-29T05:30:19.264Z,24.10
2017-12-29T05:32:46.696Z,22.60
2017-12-29T05:35:14.177Z,31.80
2017-12-29T05:37:41.635Z,21.70
2017-12-29T05:40:09.092Z,22.97
2017-12-29T05:42:36.540Z,25.50
2017-12-29T05:45:03.974Z,25.87
2017-12-29T05:47:31.410Z,23.77
2017-12-29T05:49:59.640Z,25.83
2017-12-29T05:52:27.096Z,21.70
2017-12-29T05:54:54.560Z,26.13
2017-12-29T05:57:22.004Z,23.63
2017-12-29T05:59:49.472Z,18.27
2017-12-29T06:02:16.912Z,21.90
2017-12-29T06:04:44.359Z,27.10
2017-12-29T06:07:11.856Z,19.27
2017-12-29T06:09:39.291Z,25.30
2017-12-29T06:12:06.768Z,22.77
2017-12-29T06:14:34.207Z,27.87
2017-12-29T06:17:01.664Z,21.43
2017-12-29T06:19:29.112Z,24.07
2017-12-29T06:21:56.586Z,24.40
2017-12-29T06:24:24.040Z,21.43
2017-12-29T06:26:51.489Z,22.37
2017-12-29T06:29:18.935Z,25.23
2017-12-29T06:31:46.404Z,28.00
2017-12-29T06:34:13.856Z,30.60
2017-12-29T06:36:41.300Z,28.83
2017-12-29T06:39:08.780Z,26.70
2017-12-29T06:41:36.226Z,22.03
2017-12-29T06:44:04.104Z,28.50
2017-12-29T06:46:31.547Z,21.47
2017-12-29T06:48:59.034Z,24.60
2017-12-29T06:51:26.476Z,25.20
2017-12-29T06:53:53.912Z,22.10
2017-12-29T06:56:21.345Z,28.20
2017-12-29T06:58:49.549Z,24.43
2017-12-29T07:01:16.976Z,18.60
2017-12-29T07:03:45.188Z,25.23
2017-12-29T07:06:12.620Z,27.30
2017-12-29T07:08:40.048Z,24.10
2017-12-29T07:11:07.564Z,24.50
2017-12-29T07:13:35.001Z,21.83
2017-12-29T07:16:02.426Z,27.67
2017-12-29T07:18:30.639Z,29.40
2017-12-29T07:20:58.064Z,28.00
2017-12-29T07:23:26.257Z,23.43
2017-12-29T07:25:53.692Z,22.97
2017-12-29T07:28:21.916Z,30.97
2017-12-29T07:30:49.348Z,30.77
2017-12-29T07:33:16.793Z,27.43
2017-12-29T07:35:44.996Z,29.63
2017-12-29T07:38:12.508Z,31.13
2017-12-29T07:40:40.749Z,29.37
2017-12-29T07:43:08.200Z,29.67
2017-12-29T07:45:35.632Z,31.90
2017-12-29T07:48:03.081Z,27.33
2017-12-29T07:50:30.578Z,28.20
2017-12-29T07:52:58.132Z,30.70
2017-12-29T07:55:26.365Z,26.33
2017-12-29T07:57:54.579Z,33.13
2017-12-29T08:00:22.040Z,32.13
2017-12-29T08:02:49.479Z,33.63
2017-12-29T08:05:17.435Z,39.10
2017-12-29T08:07:44.871Z,30.37
2017-12-29T08:10:13.095Z,38.17
2017-12-29T08:12:40.597Z,32.03
2017-12-29T08:15:08.796Z,38.17
2017-12-29T08:17:36.236Z,36.53
2017-12-29T08:20:05.326Z,35.03
2017-12-29T08:22:33.560Z,35.60
2017-12-29T08:25:01.016Z,39.07
2017-12-29T08:27:28.491Z,35.57
2017-12-29T08:29:55.905Z,35.70
2017-12-29T08:32:23.376Z,39.97
2017-12-29T08:34:50.836Z,38.27
2017-12-29T08:37:18.272Z,35.80
2017-12-29T08:39:45.745Z,37.27
2017-12-29T08:42:13.225Z,40.53
2017-12-29T08:44:40.655Z,42.67
2017-12-29T08:47:08.114Z,42.63
2017-12-29T08:49:35.593Z,43.77
2017-12-29T08:52:03.669Z,39.60
2017-12-29T08:54:31.133Z,42.17
2017-12-29T08:56:59.579Z,43.60
2017-12-29T08:59:27.004Z,34.43
2017-12-29T09:01:55.234Z,41.33
2017-12-29T09:04:22.690Z,38.63
2017-12-29T09:06:50.155Z,36.77
2017-12-29T09:09:17.588Z,41.10
2017-12-29T09:11:45.021Z,52.27
2017-12-29T09:14:12.528Z,41.87
2017-12-29T09:16:39.968Z,41.00
2017-12-29T09:19:07.436Z,35.60
2017-12-29T09:21:34.869Z,37.13
2017-12-29T09:24:02.342Z,33.80
2017-12-29T09:26:29.783Z,34.10
2017-12-29T09:28:57.251Z,36.10
2017-12-29T09:31:24.707Z,34.97
2017-12-29T09:33:52.166Z,33.80
2017-12-29T09:36:19.612Z,30.87
2017-12-29T09:38:47.062Z,33.83
2017-12-29T09:41:14.537Z,28.40
2017-12-29T09:43:41.964Z,30.03
2017-12-29T09:46:09.408Z,30.80
2017-12-29T09:48:37.635Z,30.33
2017-12-29T09:51:05.085Z,28.67
2017-12-29T09:53:32.536Z,27.90
2017-12-29T09:55:59.962Z,29.23
2017-12-29T09:58:27.397Z,28.03
2017-12-29T10:00:55.606Z,28.70
2017-12-29T10:03:23.036Z,27.47
2017-12-29T10:05:51.285Z,23.47
2017-12-29T10:08:18.707Z,22.87
2017-12-29T10:10:46.173Z,25.63
2017-12-29T10:13:13.610Z,26.07
2017-12-29T10:15:41.048Z,20.07
2017-12-29T10:18:09.254Z,17.73
2017-12-29T10:20:36.692Z,27.47
2017-12-29T10:23:04.184Z,27.07
2017-12-29T10:25:31.621Z,20.07
2017-12-29T10:27:59.068Z,21.67
2017-12-29T10:30:27.269Z,20.40
2017-12-29T10:32:54.704Z,18.07
2017-12-29T10:35:22.128Z,16.80
2017-12-29T10:37:50.352Z,19.47
2017-12-29T10:40:17.764Z,22.17
2017-12-29T10:42:45.961Z,22.57
2017-12-29T10:45:13.440Z,18.40
2017-12-29T10:47:40.875Z,17.77
2017-12-29T10:50:08.365Z,17.17
2017-12-29T10:52:35.804Z,20.07
2017-12-29T10:55:03.258Z,18.57
2017-12-29T10:57:30.732Z,19.97
2017-12-29T10:59:58.172Z,13.43
2017-12-29T11:02:25.644Z,15.70
2017-12-29T11:04:53.069Z,18.33
2017-12-29T11:07:20.556Z,19.37
2017-12-29T11:09:48.013Z,17.13
2017-12-29T11:12:15.465Z,16.57
2017-12-29T11:14:43.018Z,13.47
2017-12-29T11:17:10.488Z,17.53
2017-12-29T11:19:37.927Z,19.67
2017-12-29T11:22:05.388Z,18.43
2017-12-29T11:24:32.812Z,15.13
2017-12-29T11:27:01.018Z,14.77
2017-12-29T11:29:28.457Z,14.67
2017-12-29T11:31:55.940Z,11.80
2017-12-29T11:34:23.378Z,11.83
2017-12-29T11:36:50.860Z,12.70
2017-12-29T11:39:18.295Z,12.13
2017-12-29T11:41:45.719Z,13.20
2017-12-29T11:44:13.944Z,11.30
2017-12-29T11:46:41.412Z,12.43
2017-12-29T11:49:08.864Z,9.93
2017-12-29T11:51:36.316Z,15.03
2017-12-29T11:54:03.752Z,12.70
2017-12-29T11:56:31.176Z,10.53
2017-12-29T11:58:59.380Z,21.33
2017-12-29T12:01:26.876Z,11.83
2017-12-29T12:03:54.416Z,16.40
2017-12-29T12:06:21.884Z,16.57
2017-12-29T12:08:49.308Z,13.80
2017-12-29T12:11:16.732Z,14.80
2017-12-29T12:13:44.172Z,14.17
2017-12-29T12:16:11.644Z,15.17
2017-12-29T12:18:39.372Z,13.83
2017-12-29T12:21:06.824Z,11.87
2017-12-29T12:23:34.277Z,15.33
2017-12-29T12:26:01.705Z,15.40
2017-12-29T12:28:29.160Z,13.90
2017-12-29T12:30:57.352Z,15.93
2017-12-29T12:33:24.780Z,13.73
2017-12-29T12:35:52.995Z,11.53
2017-12-29T12:38:20.420Z,17.00
2017-12-29T12:40:48.624Z,13.53
2017-12-29T12:43:16.082Z,16.87
2017-12-29T12:45:43.502Z,12.30
2017-12-29T12:48:11.816Z,17.17
2017-12-29T12:50:39.233Z,13.43
2017-12-29T12:53:07.432Z,12.60
2017-12-29T12:55:34.864Z,13.67
2017-12-29T12:58:03.064Z,14.93
2017-12-29T13:00:30.488Z,13.13
2017-12-29T13:02:58.716Z,11.27
2017-12-29T13:05:26.184Z,13.90
2017-12-29T13:07:53.612Z,12.00
2017-12-29T13:10:21.036Z,7.20
2017-12-29T13:12:49.240Z,10.40
2017-12-29T13:15:16.672Z,10.27
2017-12-29T13:17:44.896Z,11.43
2017-12-29T13:20:12.346Z,9.23
2017-12-29T13:22:39.825Z,7.83
2017-12-29T13:25:07.360Z,13.63
2017-12-29T13:27:34.780Z,10.07
2017-12-29T13:30:11.012Z,10.60
2017-12-29T13:32:42.901Z,11.43
2017-12-29T13:35:11.129Z,9.97
2017-12-29T13:37:38.679Z,8.17
2017-12-29T13:40:06.112Z,7.17
2017-12-29T13:42:33.563Z,9.00
2017-12-29T13:45:01.748Z,9.73
2017-12-29T13:47:29.186Z,8.77
2017-12-29T13:49:57.408Z,5.77
2017-12-29T13:52:24.860Z,8.60
2017-12-29T13:54:52.296Z,6.87
2017-12-29T13:57:19.773Z,6.87
2017-12-29T13:59:47.180Z,8.03
2017-12-29T14:02:15.380Z,8.03
2017-12-29T14:04:42.805Z,8.53
2017-12-29T14:07:10.224Z,9.27
2017-12-29T14:09:37.663Z,7.87
2017-12-29T14:12:05.081Z,8.00
2017-12-29T14:14:33.304Z,6.60
2017-12-29T14:17:00.770Z,11.73
2017-12-29T14:19:28.211Z,10.13
2017-12-29T14:21:55.647Z,10.20
2017-12-29T14:24:23.848Z,10.13
2017-12-29T14:26:51.281Z,9.80
2017-12-29T14:29:18.716Z,10.47
2017-12-29T14:31:46.944Z,7.97
2017-12-29T14:34:14.399Z,10.03
2017-12-29T14:36:41.828Z,8.10
2017-12-29T14:39:09.364Z,9.50
2017-12-29T14:41:37.548Z,8.17
2017-12-29T14:44:05.757Z,8.13
2017-12-29T14:46:33.196Z,9.03
2017-12-29T14:49:01.709Z,6.97
2017-12-29T14:51:29.136Z,7.13
2017-12-29T14:53:56.576Z,8.70
2017-12-29T14:56:24.772Z,9.23
2017-12-29T14:58:52.199Z,8.60
2017-12-29T15:01:20.430Z,4.27
2017-12-29T15:03:47.848Z,7.80
2017-12-29T15:06:15.338Z,10.17
2017-12-29T15:08:42.794Z,14.07
2017-12-29T15:11:10.248Z,15.47
2017-12-29T15:13:37.681Z,11.57
2017-12-29T15:16:05.164Z,9.47
2017-12-29T15:18:32.616Z,10.87
2017-12-29T15:21:00.084Z,10.00
2017-12-29T15:23:27.655Z,8.77
2017-12-29T15:25:55.064Z,10.60
2017-12-29T15:28:22.496Z,13.50
2017-12-29T15:30:50.752Z,12.37
2017-12-29T15:33:18.188Z,13.83
2017-12-29T15:35:45.638Z,9.70
2017-12-29T15:38:13.103Z,11.60
2017-12-29T15:40:40.550Z,13.97
2017-12-29T15:43:07.966Z,12.33
2017-12-29T15:45:36.180Z,15.27
2017-12-29T15:48:03.652Z,12.87
2017-12-29T15:50:31.085Z,11.70
2017-12-29T15:52:58.530Z,10.50
2017-12-29T15:55:26.030Z,11.77
2017-12-29T15:57:53.586Z,9.97
2017-12-29T16:00:21.036Z,8.47
2017-12-29T16:02:48.500Z,10.40
2017-12-29T16:05:15.938Z,10.27
2017-12-29T16:07:43.385Z,12.07
2017-12-29T16:10:10.875Z,11.87
2017-12-29T16:12:38.350Z,12.35
2017-12-29T16:15:05.785Z,8.67
2017-12-29T16:17:33.252Z,7.87
2017-12-29T16:20:00.744Z,9.77
2017-12-29T16:22:28.976Z,7.90
2017-12-29T16:24:56.475Z,7.93
2017-12-29T16:27:23.904Z,8.33
2017-12-29T16:29:51.340Z,9.52
2017-12-29T16:32:18.764Z,7.70
2017-12-29T16:34:46.204Z,7.20
2017-12-29T16:37:14.419Z,6.50
2017-12-29T16:39:41.880Z,5.00
2017-12-29T16:42:09.348Z,5.90
2017-12-29T16:44:36.808Z,9.03
2017-12-29T16:47:04.241Z,6.53
2017-12-29T16:49:31.660Z,7.03
2017-12-29T16:51:59.911Z,7.37
2017-12-29T16:54:27.378Z,7.43
2017-12-29T16:56:54.791Z,7.30
2017-12-29T16:59:22.273Z,8.17
2017-12-29T17:01:49.716Z,12.03
2017-12-29T17:04:17.149Z,9.53
2017-12-29T17:06:44.591Z,8.00
2017-12-29T17:09:12.804Z,7.80
2017-12-29T17:11:40.254Z,9.10
2017-12-29T17:14:07.673Z,8.70
2017-12-29T17:16:35.871Z,13.60
2017-12-29T17:19:03.363Z,10.50
2017-12-29T17:21:30.805Z,10.70
2017-12-29T17:23:58.271Z,9.77
2017-12-29T17:26:25.712Z,13.43
2017-12-29T17:28:53.157Z,11.10
2017-12-29T17:31:20.608Z,12.07
2017-12-29T17:33:48.098Z,14.67
2017-12-29T17:36:15.548Z,15.70
2017-12-29T17:38:43.012Z,16.47
2017-12-29T17:41:10.464Z,19.47
2017-12-29T17:43:37.920Z,15.10
2017-12-29T17:46:05.362Z,16.33
2017-12-29T17:48:32.836Z,19.03
2017-12-29T17:51:00.379Z,18.73
2017-12-29T17:53:27.848Z,19.23
2017-12-29T17:55:55.280Z,20.77
2017-12-29T17:58:22.857Z,19.87
2017-12-29T18:00:50.286Z,20.13
2017-12-29T18:03:18.500Z,19.23
2017-12-29T18:05:45.956Z,20.90
2017-12-29T18:08:13.384Z,19.10
2017-12-29T18:10:40.859Z,20.40
2017-12-29T18:13:08.309Z,22.20
2017-12-29T18:15:35.805Z,21.23
2017-12-29T18:18:03.245Z,19.93
2017-12-29T18:20:30.685Z,22.53
2017-12-29T18:22:58.124Z,23.20
2017-12-29T18:25:25.572Z,26.23
2017-12-29T18:27:53.068Z,25.00
2017-12-29T18:30:20.517Z,28.17
2017-12-29T18:32:47.941Z,32.83
2017-12-29T18:35:16.350Z,28.70
2017-12-29T18:37:43.756Z,28.80
2017-12-29T18:40:11.367Z,25.77
2017-12-29T18:42:38.792Z,28.17
2017-12-29T18:45:06.996Z,25.93
2017-12-29T18:47:34.428Z,28.63
2017-12-29T18:50:01.879Z,28.43
2017-12-29T18:52:30.109Z,26.63
2017-12-29T18:54:57.552Z,27.30
2017-12-29T18:57:25.013Z,30.93
2017-12-29T18:59:52.479Z,26.90
2017-12-29T19:02:19.969Z,28.70
2017-12-29T19:04:47.414Z,32.63
2017-12-29T19:07:14.935Z,35.77
2017-12-29T19:09:42.361Z,35.50
2017-12-29T19:12:10.684Z,34.87
2017-12-29T19:14:38.118Z,35.30
2017-12-29T19:17:05.552Z,30.00
2017-12-29T19:19:33.832Z,35.77
2017-12-29T19:22:01.332Z,36.40
2017-12-29T19:24:28.783Z,31.57
2017-12-29T19:26:56.250Z,46.67
2017-12-29T19:29:23.668Z,44.80
2017-12-29T19:31:51.152Z,38.87
2017-12-29T19:34:18.596Z,36.87
2017-12-29T19:36:46.036Z,40.00
2017-12-29T19:39:13.468Z,37.83
2017-12-29T19:41:41.676Z,37.57
2017-12-29T19:44:09.110Z,33.60
2017-12-29T19:46:37.306Z,29.30
2017-12-29T19:49:04.789Z,25.27
2017-12-29T19:51:32.221Z,31.00
2017-12-29T19:53:59.704Z,28.73
2017-12-29T19:56:27.152Z,28.10
2017-12-29T19:58:54.625Z,20.30
2017-12-29T20:01:22.059Z,24.67
2017-12-29T20:03:49.504Z,26.53
2017-12-29T20:06:16.944Z,20.03
2017-12-29T20:08:45.147Z,31.77
2017-12-29T20:11:12.613Z,21.80
2017-12-29T20:13:40.112Z,23.97
2017-12-29T20:16:07.556Z,25.50
2017-12-29T20:18:35.104Z,12.43
2017-12-29T20:21:02.563Z,14.70
2017-12-29T20:23:30.007Z,16.60
2017-12-29T20:25:57.462Z,18.83
2017-12-29T20:28:24.908Z,14.50
2017-12-29T20:30:52.340Z,15.40
2017-12-29T20:33:20.553Z,12.13
2017-12-29T20:35:48.018Z,15.10
2017-12-29T20:38:15.557Z,17.50
2017-12-29T20:40:43.014Z,19.37
2017-12-29T20:43:10.436Z,20.70
2017-12-29T20:45:38.655Z,13.67
2017-12-29T20:48:06.152Z,14.93
2017-12-29T20:50:33.529Z,25.70
2017-12-29T20:53:01.744Z,18.20
2017-12-29T20:55:29.310Z,18.47
2017-12-29T20:57:56.853Z,14.97
2017-12-29T21:00:24.260Z,16.13
2017-12-29T21:02:51.700Z,16.43
2017-12-29T21:05:19.128Z,21.40
2017-12-29T21:07:46.571Z,18.53
2017-12-29T21:10:14.009Z,15.07
2017-12-29T21:12:42.314Z,18.03
2017-12-29T21:15:09.788Z,23.67
2017-12-29T21:17:37.253Z,30.30
2017-12-29T21:20:04.668Z,16.70
2017-12-29T21:22:32.233Z,17.00
2017-12-29T21:24:59.776Z,14.63
2017-12-29T21:27:27.291Z,16.27
2017-12-29T21:29:54.715Z,21.20
2017-12-29T21:32:22.211Z,18.17
2017-12-29T21:34:49.651Z,17.63
2017-12-29T21:37:17.088Z,26.07
2017-12-29T21:39:44.516Z,25.73
2017-12-29T21:42:12.822Z,29.23
2017-12-29T21:44:40.293Z,27.20
2017-12-29T21:47:07.756Z,26.20
2017-12-29T21:49:35.180Z,25.07
2017-12-29T21:52:02.660Z,18.00
2017-12-29T21:54:30.211Z,20.57
2017-12-29T21:56:57.672Z,24.50
2017-12-29T21:59:25.108Z,27.07
2017-12-29T22:01:52.620Z,26.90
2017-12-29T22:04:20.052Z,25.83
2017-12-29T22:06:47.497Z,14.17
2017-12-29T22:09:14.928Z,26.10
2017-12-29T22:11:43.140Z,26.43
2017-12-29T22:14:10.569Z,28.67
2017-12-29T22:16:38.070Z,24.93
2017-12-29T22:19:05.508Z,26.20
2017-12-29T22:21:32.943Z,28.03
2017-12-29T22:24:00.380Z,21.80
2017-12-29T22:26:28.576Z,27.67
2017-12-29T22:28:56.043Z,21.50
2017-12-29T22:31:23.480Z,19.03
2017-12-29T22:33:50.968Z,18.60
2017-12-29T22:36:18.442Z,40.33
2017-12-29T22:38:46.087Z,27.07
2017-12-29T22:41:13.516Z,23.67
2017-12-29T22:43:40.999Z,24.13
2017-12-29T22:46:08.432Z,28.33
2017-12-29T22:48:35.861Z,19.23
2017-12-29T22:51:04.052Z,24.53
2017-12-29T22:53:31.508Z,18.90
2017-12-29T22:55:59.724Z,33.03
2017-12-29T22:58:27.184Z,27.07
2017-12-29T23:00:54.621Z,26.17
2017-12-29T23:03:22.070Z,27.70
2017-12-29T23:05:50.244Z,29.50
2017-12-29T23:08:17.688Z,26.93
2017-12-29T23:10:45.177Z,22.67
2017-12-29T23:13:12.613Z,23.47
2017-12-29T23:15:40.096Z,18.77
2017-12-29T23:18:07.576Z,20.90
2017-12-29T23:20:34.980Z,24.70
2017-12-29T23:23:02.465Z,25.37
2017-12-29T23:25:29.925Z,30.80
2017-12-29T23:27:57.380Z,26.33
2017-12-29T23:30:24.846Z,20.10
2017-12-29T23:32:52.286Z,32.47
2017-12-29T23:35:19.700Z,26.20
2017-12-29T23:37:47.915Z,28.67
2017-12-29T23:40:15.374Z,24.63
2017-12-29T23:42:42.777Z,31.90
2017-12-29T23:45:10.212Z,26.97
2017-12-29T23:47:37.668Z,26.70
2017-12-29T23:50:05.085Z,29.57
2017-12-29T23:52:32.536Z,27.87
2017-12-29T23:54:59.960Z,28.20
2017-12-29T23:57:27.480Z,23.77
2017-12-29T23:59:54.940Z,26.60
